Terminal Aerodrome Forecast
Issued by NWS

Current Version | Previous Version | Text Only | Print | Product List | Glossary Off
Versions: 1 2 3 4 5 6 7 8 9 10 11 12 13 14

000
FTUS41 KILN 172321
TAFLCK
TAF
KLCK 172321Z 1800/1824 VRB03KT P6SM FEW050
     FM180400 VRB03KT P6SM SKC
      TEMPO 1808/1812 4SM BR
     FM181200 00000KT P6SM SKC
     FM181500 VRB03KT P6SM SCT050=

USA.gov is the U.S. government's official web portal to all federal, state and local government web resources and services.